sensor_id;sensor_type;location;lat;lon;timestamp;temperature;humidity
14252;DHT22;7210;51.502;10.722;2022-07-15T00:00:35;12.30;1.00
14252;DHT22;7210;51.502;10.722;2022-07-15T00:03:03;12.30;1.00
14252;DHT22;7210;51.502;10.722;2022-07-15T00:05:31;12.20;1.00
14252;DHT22;7210;51.502;10.722;2022-07-15T00:07:58;12.10;1.00
14252;DHT22;7210;51.502;10.722;2022-07-15T00:10:27;12.20;1.00
14252;DHT22;7210;51.502;10.722;2022-07-15T00:12:57;12.20;1.00
14252;DHT22;7210;51.502;10.722;2022-07-15T00:15:27;12.20;1.00
14252;DHT22;7210;51.502;10.722;2022-07-15T00:17:58;12.30;1.00
14252;DHT22;7210;51.502;10.722;2022-07-15T00:20:28;12.30;1.00
14252;DHT22;7210;51.502;10.722;2022-07-15T00:23:00;12.30;1.00
14252;DHT22;7210;51.502;10.722;2022-07-15T00:25:28;12.30;1.00
14252;DHT22;7210;51.502;10.722;2022-07-15T00:27:56;12.30;1.00
14252;DHT22;7210;51.502;10.722;2022-07-15T00:30:29;12.40;1.00
14252;DHT22;7210;51.502;10.722;2022-07-15T00:32:59;12.30;1.00
14252;DHT22;7210;51.502;10.722;2022-07-15T00:35:27;12.10;1.00
14252;DHT22;7210;51.502;10.722;2022-07-15T00:37:55;12.00;1.00
14252;DHT22;7210;51.502;10.722;2022-07-15T00:40:22;12.00;1.00
14252;DHT22;7210;51.502;10.722;2022-07-15T00:42:50;11.90;1.00
14252;DHT22;7210;51.502;10.722;2022-07-15T00:45:20;11.80;1.00
14252;DHT22;7210;51.502;10.722;2022-07-15T00:47:54;11.80;1.00
14252;DHT22;7210;51.502;10.722;2022-07-15T00:50:25;11.70;1.00
14252;DHT22;7210;51.502;10.722;2022-07-15T00:52:59;11.70;1.00
14252;DHT22;7210;51.502;10.722;2022-07-15T00:55:31;11.60;1.00
14252;DHT22;7210;51.502;10.722;2022-07-15T00:58:02;11.60;1.00
14252;DHT22;7210;51.502;10.722;2022-07-15T01:00:31;11.50;1.00
14252;DHT22;7210;51.502;10.722;2022-07-15T01:03:00;11.50;1.00
14252;DHT22;7210;51.502;10.722;2022-07-15T01:05:30;11.40;1.00
14252;DHT22;7210;51.502;10.722;2022-07-15T01:07:57;11.40;1.00
14252;DHT22;7210;51.502;10.722;2022-07-15T01:10:25;11.40;1.00
14252;DHT22;7210;51.502;10.722;2022-07-15T01:12:55;11.40;1.00
14252;DHT22;7210;51.502;10.722;2022-07-15T01:15:27;11.40;1.00
14252;DHT22;7210;51.502;10.722;2022-07-15T01:17:57;11.40;1.00
14252;DHT22;7210;51.502;10.722;2022-07-15T01:20:26;11.40;1.00
14252;DHT22;7210;51.502;10.722;2022-07-15T01:22:57;11.30;1.00
14252;DHT22;7210;51.502;10.722;2022-07-15T01:25:39;11.30;1.00
14252;DHT22;7210;51.502;10.722;2022-07-15T01:28:10;11.40;1.00
14252;DHT22;7210;51.502;10.722;2022-07-15T01:30:38;11.40;1.00
14252;DHT22;7210;51.502;10.722;2022-07-15T01:33:09;11.40;1.00
14252;DHT22;7210;51.502;10.722;2022-07-15T01:35:37;11.40;1.00
14252;DHT22;7210;51.502;10.722;2022-07-15T01:38:07;11.40;1.00
14252;DHT22;7210;51.502;10.722;2022-07-15T01:40:35;11.40;1.00
14252;DHT22;7210;51.502;10.722;2022-07-15T01:43:04;11.40;1.00
14252;DHT22;7210;51.502;10.722;2022-07-15T01:45:32;11.30;1.00
14252;DHT22;7210;51.502;10.722;2022-07-15T01:47:59;11.30;1.00
14252;DHT22;7210;51.502;10.722;2022-07-15T01:50:47;11.30;1.00
14252;DHT22;7210;51.502;10.722;2022-07-15T01:53:19;11.30;1.00
14252;DHT22;7210;51.502;10.722;2022-07-15T01:55:48;11.20;1.00
14252;DHT22;7210;51.502;10.722;2022-07-15T01:58:16;11.20;1.00
14252;DHT22;7210;51.502;10.722;2022-07-15T02:00:46;11.20;1.00
14252;DHT22;7210;51.502;10.722;2022-07-15T02:03:15;11.10;1.00
14252;DHT22;7210;51.502;10.722;2022-07-15T02:05:43;11.00;1.00
14252;DHT22;7210;51.502;10.722;2022-07-15T02:11:07;11.00;1.00
14252;DHT22;7210;51.502;10.722;2022-07-15T02:13:34;10.90;1.00
14252;DHT22;7210;51.502;10.722;2022-07-15T02:16:02;11.00;1.00
14252;DHT22;7210;51.502;10.722;2022-07-15T02:21:43;10.90;1.00
14252;DHT22;7210;51.502;10.722;2022-07-15T02:24:13;10.90;1.00
14252;DHT22;7210;51.502;10.722;2022-07-15T02:26:43;10.90;1.00
14252;DHT22;7210;51.502;10.722;2022-07-15T02:29:10;10.90;1.00
14252;DHT22;7210;51.502;10.722;2022-07-15T02:31:38;10.90;1.00
14252;DHT22;7210;51.502;10.722;2022-07-15T02:34:05;10.90;1.00
14252;DHT22;7210;51.502;10.722;2022-07-15T02:36:34;10.90;1.00
14252;DHT22;7210;51.502;10.722;2022-07-15T02:39:03;10.90;1.00
14252;DHT22;7210;51.502;10.722;2022-07-15T02:41:32;10.90;1.00
14252;DHT22;7210;51.502;10.722;2022-07-15T02:44:06;10.90;1.00
14252;DHT22;7210;51.502;10.722;2022-07-15T02:46:36;10.80;1.00
14252;DHT22;7210;51.502;10.722;2022-07-15T02:49:03;10.70;1.00
14252;DHT22;7210;51.502;10.722;2022-07-15T02:51:32;10.60;1.00
14252;DHT22;7210;51.502;10.722;2022-07-15T02:54:00;10.50;1.00
14252;DHT22;7210;51.502;10.722;2022-07-15T02:56:30;10.40;1.00
14252;DHT22;7210;51.502;10.722;2022-07-15T02:58:59;10.40;1.00
14252;DHT22;7210;51.502;10.722;2022-07-15T03:01:27;10.40;1.00
14252;DHT22;7210;51.502;10.722;2022-07-15T03:03:57;10.40;1.00
14252;DHT22;7210;51.502;10.722;2022-07-15T03:06:26;10.40;1.00
14252;DHT22;7210;51.502;10.722;2022-07-15T03:08:53;10.40;1.00
14252;DHT22;7210;51.502;10.722;2022-07-15T03:11:21;10.40;1.00
14252;DHT22;7210;51.502;10.722;2022-07-15T03:13:55;10.40;1.00
14252;DHT22;7210;51.502;10.722;2022-07-15T03:16:22;10.50;1.00
14252;DHT22;7210;51.502;10.722;2022-07-15T03:18:53;10.70;1.00
14252;DHT22;7210;51.502;10.722;2022-07-15T03:21:20;10.80;1.00
14252;DHT22;7210;51.502;10.722;2022-07-15T03:23:49;10.80;1.00
14252;DHT22;7210;51.502;10.722;2022-07-15T03:26:16;10.80;1.00
14252;DHT22;7210;51.502;10.722;2022-07-15T03:28:44;10.80;1.00
14252;DHT22;7210;51.502;10.722;2022-07-15T03:31:12;10.90;1.00
14252;DHT22;7210;51.502;10.722;2022-07-15T03:33:43;11.00;1.00
14252;DHT22;7210;51.502;10.722;2022-07-15T03:36:14;11.10;1.00
14252;DHT22;7210;51.502;10.722;2022-07-15T03:38:42;11.10;1.00
14252;DHT22;7210;51.502;10.722;2022-07-15T03:41:19;11.10;1.00
14252;DHT22;7210;51.502;10.722;2022-07-15T03:43:47;11.10;1.00
14252;DHT22;7210;51.502;10.722;2022-07-15T03:46:16;11.20;1.00
14252;DHT22;7210;51.502;10.722;2022-07-15T03:48:48;11.30;1.00
14252;DHT22;7210;51.502;10.722;2022-07-15T03:51:17;11.40;1.00
14252;DHT22;7210;51.502;10.722;2022-07-15T03:53:44;11.50;1.00
14252;DHT22;7210;51.502;10.722;2022-07-15T03:56:12;11.70;1.00
14252;DHT22;7210;51.502;10.722;2022-07-15T03:58:39;11.70;1.00
14252;DHT22;7210;51.502;10.722;2022-07-15T04:01:07;11.80;1.00
14252;DHT22;7210;51.502;10.722;2022-07-15T04:03:34;11.90;1.00
14252;DHT22;7210;51.502;10.722;2022-07-15T04:06:01;12.00;1.00
14252;DHT22;7210;51.502;10.722;2022-07-15T04:08:30;12.00;1.00
14252;DHT22;7210;51.502;10.722;2022-07-15T04:10:57;12.00;1.00
14252;DHT22;7210;51.502;10.722;2022-07-15T04:13:24;12.10;1.00
14252;DHT22;7210;51.502;10.722;2022-07-15T04:15:52;12.10;1.00
14252;DHT22;7210;51.502;10.722;2022-07-15T04:18:19;12.20;1.00
14252;DHT22;7210;51.502;10.722;2022-07-15T04:20:46;12.20;1.00
14252;DHT22;7210;51.502;10.722;2022-07-15T04:23:14;12.30;1.00
14252;DHT22;7210;51.502;10.722;2022-07-15T04:25:43;12.30;1.00
14252;DHT22;7210;51.502;10.722;2022-07-15T04:28:12;12.40;1.00
14252;DHT22;7210;51.502;10.722;2022-07-15T04:30:40;12.50;1.00
14252;DHT22;7210;51.502;10.722;2022-07-15T04:33:09;12.70;1.00
14252;DHT22;7210;51.502;10.722;2022-07-15T04:35:39;12.90;1.00
14252;DHT22;7210;51.502;10.722;2022-07-15T04:38:11;13.00;1.00
14252;DHT22;7210;51.502;10.722;2022-07-15T04:40:43;13.00;1.00
14252;DHT22;7210;51.502;10.722;2022-07-15T04:43:11;13.10;1.00
14252;DHT22;7210;51.502;10.722;2022-07-15T04:45:42;13.40;1.00
14252;DHT22;7210;51.502;10.722;2022-07-15T04:48:10;13.40;1.00
14252;DHT22;7210;51.502;10.722;2022-07-15T04:50:55;13.50;1.00
14252;DHT22;7210;51.502;10.722;2022-07-15T04:53:25;13.50;1.00
14252;DHT22;7210;51.502;10.722;2022-07-15T04:55:55;13.70;1.00
14252;DHT22;7210;51.502;10.722;2022-07-15T04:58:22;13.90;1.00
14252;DHT22;7210;51.502;10.722;2022-07-15T05:00:50;13.90;1.00
14252;DHT22;7210;51.502;10.722;2022-07-15T05:03:19;14.00;1.00
14252;DHT22;7210;51.502;10.722;2022-07-15T05:05:48;14.10;1.00
14252;DHT22;7210;51.502;10.722;2022-07-15T05:08:18;14.10;1.00
14252;DHT22;7210;51.502;10.722;2022-07-15T05:10:51;14.10;1.00
14252;DHT22;7210;51.502;10.722;2022-07-15T05:13:19;14.10;1.00
14252;DHT22;7210;51.502;10.722;2022-07-15T05:15:48;14.10;1.00
14252;DHT22;7210;51.502;10.722;2022-07-15T05:18:20;14.20;1.00
14252;DHT22;7210;51.502;10.722;2022-07-15T05:20:49;14.30;1.00
14252;DHT22;7210;51.502;10.722;2022-07-15T05:23:17;14.40;1.00
14252;DHT22;7210;51.502;10.722;2022-07-15T05:25:51;14.60;1.00
14252;DHT22;7210;51.502;10.722;2022-07-15T05:28:20;14.50;1.00
14252;DHT22;7210;51.502;10.722;2022-07-15T05:30:49;14.50;1.00
14252;DHT22;7210;51.502;10.722;2022-07-15T05:33:16;14.60;1.00
14252;DHT22;7210;51.502;10.722;2022-07-15T05:35:49;14.70;1.00
14252;DHT22;7210;51.502;10.722;2022-07-15T05:38:16;14.80;1.00
14252;DHT22;7210;51.502;10.722;2022-07-15T05:40:43;14.90;1.00
14252;DHT22;7210;51.502;10.722;2022-07-15T05:43:11;15.00;1.00
14252;DHT22;7210;51.502;10.722;2022-07-15T05:45:41;15.00;1.00
14252;DHT22;7210;51.502;10.722;2022-07-15T05:48:09;15.20;1.00
14252;DHT22;7210;51.502;10.722;2022-07-15T05:50:42;15.40;1.00
14252;DHT22;7210;51.502;10.722;2022-07-15T05:53:12;15.60;1.00
14252;DHT22;7210;51.502;10.722;2022-07-15T05:55:40;15.70;1.00
14252;DHT22;7210;51.502;10.722;2022-07-15T05:58:13;15.70;1.00
14252;DHT22;7210;51.502;10.722;2022-07-15T06:00:42;15.80;1.00
14252;DHT22;7210;51.502;10.722;2022-07-15T06:03:10;15.80;1.00
14252;DHT22;7210;51.502;10.722;2022-07-15T06:05:41;15.90;1.00
14252;DHT22;7210;51.502;10.722;2022-07-15T06:08:08;15.70;1.00
14252;DHT22;7210;51.502;10.722;2022-07-15T06:10:38;15.70;1.00
14252;DHT22;7210;51.502;10.722;2022-07-15T06:13:06;15.80;1.00
14252;DHT22;7210;51.502;10.722;2022-07-15T06:15:33;15.80;1.00
14252;DHT22;7210;51.502;10.722;2022-07-15T06:18:04;16.00;1.00
14252;DHT22;7210;51.502;10.722;2022-07-15T06:20:32;16.00;1.00
14252;DHT22;7210;51.502;10.722;2022-07-15T06:23:00;16.10;1.00
14252;DHT22;7210;51.502;10.722;2022-07-15T06:25:27;16.20;1.00
14252;DHT22;7210;51.502;10.722;2022-07-15T06:27:55;16.20;1.00
14252;DHT22;7210;51.502;10.722;2022-07-15T06:30:22;16.20;1.00
14252;DHT22;7210;51.502;10.722;2022-07-15T06:32:49;16.20;1.00
14252;DHT22;7210;51.502;10.722;2022-07-15T06:35:18;16.10;1.00
14252;DHT22;7210;51.502;10.722;2022-07-15T06:37:47;16.20;1.00
14252;DHT22;7210;51.502;10.722;2022-07-15T06:40:15;16.20;1.00
14252;DHT22;7210;51.502;10.722;2022-07-15T06:42:43;16.20;1.00
14252;DHT22;7210;51.502;10.722;2022-07-15T06:45:14;16.30;1.00
14252;DHT22;7210;51.502;10.722;2022-07-15T06:47:41;16.30;1.00
14252;DHT22;7210;51.502;10.722;2022-07-15T06:50:11;16.40;1.00
14252;DHT22;7210;51.502;10.722;2022-07-15T06:52:44;16.40;1.00
14252;DHT22;7210;51.502;10.722;2022-07-15T06:55:11;16.40;1.00
14252;DHT22;7210;51.502;10.722;2022-07-15T06:57:39;16.40;1.00
14252;DHT22;7210;51.502;10.722;2022-07-15T07:00:08;16.40;1.00
14252;DHT22;7210;51.502;10.722;2022-07-15T07:02:38;16.60;1.00
14252;DHT22;7210;51.502;10.722;2022-07-15T07:05:06;16.60;1.00
14252;DHT22;7210;51.502;10.722;2022-07-15T07:07:35;16.70;1.00
14252;DHT22;7210;51.502;10.722;2022-07-15T07:10:04;16.70;1.00
14252;DHT22;7210;51.502;10.722;2022-07-15T07:12:32;16.80;1.00
14252;DHT22;7210;51.502;10.722;2022-07-15T07:14:59;16.90;1.00
14252;DHT22;7210;51.502;10.722;2022-07-15T07:17:28;16.90;1.00
14252;DHT22;7210;51.502;10.722;2022-07-15T07:19:55;17.00;1.00
14252;DHT22;7210;51.502;10.722;2022-07-15T07:22:23;17.10;1.00
14252;DHT22;7210;51.502;10.722;2022-07-15T07:24:50;17.20;1.00
14252;DHT22;7210;51.502;10.722;2022-07-15T07:27:20;17.30;1.00
14252;DHT22;7210;51.502;10.722;2022-07-15T07:29:47;17.60;1.00
14252;DHT22;7210;51.502;10.722;2022-07-15T07:32:14;17.80;1.00
14252;DHT22;7210;51.502;10.722;2022-07-15T07:34:42;17.90;1.00
14252;DHT22;7210;51.502;10.722;2022-07-15T07:37:09;18.10;1.00
14252;DHT22;7210;51.502;10.722;2022-07-15T07:39:37;18.30;1.00
14252;DHT22;7210;51.502;10.722;2022-07-15T07:42:04;18.40;1.00
14252;DHT22;7210;51.502;10.722;2022-07-15T07:44:33;18.30;1.00
14252;DHT22;7210;51.502;10.722;2022-07-15T07:47:00;18.30;1.00
14252;DHT22;7210;51.502;10.722;2022-07-15T07:49:27;18.20;1.00
14252;DHT22;7210;51.502;10.722;2022-07-15T07:51:55;18.10;1.00
14252;DHT22;7210;51.502;10.722;2022-07-15T07:54:22;18.20;1.00
14252;DHT22;7210;51.502;10.722;2022-07-15T07:56:50;18.20;1.00
14252;DHT22;7210;51.502;10.722;2022-07-15T07:59:17;18.10;1.00
14252;DHT22;7210;51.502;10.722;2022-07-15T08:01:46;18.10;1.00
14252;DHT22;7210;51.502;10.722;2022-07-15T08:04:13;18.10;1.00
14252;DHT22;7210;51.502;10.722;2022-07-15T08:06:43;18.00;1.00
14252;DHT22;7210;51.502;10.722;2022-07-15T08:09:10;18.00;1.00
14252;DHT22;7210;51.502;10.722;2022-07-15T08:11:38;18.10;1.00
14252;DHT22;7210;51.502;10.722;2022-07-15T08:14:07;18.10;1.00
14252;DHT22;7210;51.502;10.722;2022-07-15T08:16:35;18.20;1.00
14252;DHT22;7210;51.502;10.722;2022-07-15T08:19:04;18.30;1.00
14252;DHT22;7210;51.502;10.722;2022-07-15T08:21:31;18.50;1.00
14252;DHT22;7210;51.502;10.722;2022-07-15T08:23:58;18.50;1.00
14252;DHT22;7210;51.502;10.722;2022-07-15T08:26:26;18.50;1.00
14252;DHT22;7210;51.502;10.722;2022-07-15T08:28:53;18.40;1.00
14252;DHT22;7210;51.502;10.722;2022-07-15T08:31:20;18.50;1.00
14252;DHT22;7210;51.502;10.722;2022-07-15T08:33:48;18.70;1.00
14252;DHT22;7210;51.502;10.722;2022-07-15T08:36:17;18.90;1.00
14252;DHT22;7210;51.502;10.722;2022-07-15T08:38:44;19.00;1.00
14252;DHT22;7210;51.502;10.722;2022-07-15T08:41:13;19.10;1.00
14252;DHT22;7210;51.502;10.722;2022-07-15T08:43:42;19.20;1.00
14252;DHT22;7210;51.502;10.722;2022-07-15T08:46:10;19.20;1.00
14252;DHT22;7210;51.502;10.722;2022-07-15T08:48:43;19.40;1.00
14252;DHT22;7210;51.502;10.722;2022-07-15T08:51:21;19.40;1.00
14252;DHT22;7210;51.502;10.722;2022-07-15T08:53:55;19.40;1.00
14252;DHT22;7210;51.502;10.722;2022-07-15T08:56:24;19.30;1.00
14252;DHT22;7210;51.502;10.722;2022-07-15T08:58:53;19.10;1.00
14252;DHT22;7210;51.502;10.722;2022-07-15T09:01:20;19.00;1.00
14252;DHT22;7210;51.502;10.722;2022-07-15T09:03:48;19.00;1.00
14252;DHT22;7210;51.502;10.722;2022-07-15T09:06:32;18.90;1.00
14252;DHT22;7210;51.502;10.722;2022-07-15T09:09:25;18.70;1.00
14252;DHT22;7210;51.502;10.722;2022-07-15T09:12:00;18.50;1.00
14252;DHT22;7210;51.502;10.722;2022-07-15T09:14:31;18.40;1.00
14252;DHT22;7210;51.502;10.722;2022-07-15T09:17:21;18.40;1.00
14252;DHT22;7210;51.502;10.722;2022-07-15T09:19:58;18.50;1.00
14252;DHT22;7210;51.502;10.722;2022-07-15T09:22:30;18.60;1.00
14252;DHT22;7210;51.502;10.722;2022-07-15T09:25:10;18.60;1.00
14252;DHT22;7210;51.502;10.722;2022-07-15T09:27:39;18.60;1.00
14252;DHT22;7210;51.502;10.722;2022-07-15T09:30:15;18.60;1.00
14252;DHT22;7210;51.502;10.722;2022-07-15T09:33:04;18.60;1.00
14252;DHT22;7210;51.502;10.722;2022-07-15T09:35:50;18.50;1.00
14252;DHT22;7210;51.502;10.722;2022-07-15T09:38:33;18.30;1.00
14252;DHT22;7210;51.502;10.722;2022-07-15T09:41:07;18.20;1.00
14252;DHT22;7210;51.502;10.722;2022-07-15T09:43:48;18.30;1.00
14252;DHT22;7210;51.502;10.722;2022-07-15T09:46:18;18.30;1.00
14252;DHT22;7210;51.502;10.722;2022-07-15T09:48:49;18.40;1.00
14252;DHT22;7210;51.502;10.722;2022-07-15T09:51:18;18.30;1.00
14252;DHT22;7210;51.502;10.722;2022-07-15T09:53:48;18.60;1.00
14252;DHT22;7210;51.502;10.722;2022-07-15T09:56:19;18.90;1.00
14252;DHT22;7210;51.502;10.722;2022-07-15T09:58:52;19.20;1.00
14252;DHT22;7210;51.502;10.722;2022-07-15T10:01:19;19.30;1.00
14252;DHT22;7210;51.502;10.722;2022-07-15T10:03:49;19.40;1.00
14252;DHT22;7210;51.502;10.722;2022-07-15T10:06:19;19.60;1.00
14252;DHT22;7210;51.502;10.722;2022-07-15T10:08:50;19.70;1.00
14252;DHT22;7210;51.502;10.722;2022-07-15T10:11:18;19.90;1.00
14252;DHT22;7210;51.502;10.722;2022-07-15T10:17:41;19.80;1.00
14252;DHT22;7210;51.502;10.722;2022-07-15T10:24:01;19.70;1.00
14252;DHT22;7210;51.502;10.722;2022-07-15T10:26:48;19.50;1.00
14252;DHT22;7210;51.502;10.722;2022-07-15T10:29:29;19.50;1.00
14252;DHT22;7210;51.502;10.722;2022-07-15T10:31:58;19.40;1.00
14252;DHT22;7210;51.502;10.722;2022-07-15T10:34:29;19.10;1.00
14252;DHT22;7210;51.502;10.722;2022-07-15T10:37:03;19.00;1.00
14252;DHT22;7210;51.502;10.722;2022-07-15T10:39:53;18.70;1.00
14252;DHT22;7210;51.502;10.722;2022-07-15T10:42:59;18.70;1.00
14252;DHT22;7210;51.502;10.722;2022-07-15T10:45:27;18.70;1.00
14252;DHT22;7210;51.502;10.722;2022-07-15T10:48:25;18.90;1.00
14252;DHT22;7210;51.502;10.722;2022-07-15T10:50:53;18.90;1.00
14252;DHT22;7210;51.502;10.722;2022-07-15T10:53:23;19.00;1.00
14252;DHT22;7210;51.502;10.722;2022-07-15T10:56:25;19.10;1.00
14252;DHT22;7210;51.502;10.722;2022-07-15T10:59:10;19.30;1.00
14252;DHT22;7210;51.502;10.722;2022-07-15T11:01:42;19.60;1.00
14252;DHT22;7210;51.502;10.722;2022-07-15T11:04:13;19.90;1.00
14252;DHT22;7210;51.502;10.722;2022-07-15T11:10:14;20.40;1.00
14252;DHT22;7210;51.502;10.722;2022-07-15T11:13:04;20.00;1.00
14252;DHT22;7210;51.502;10.722;2022-07-15T11:15:32;20.10;1.00
14252;DHT22;7210;51.502;10.722;2022-07-15T11:18:00;20.30;1.00
14252;DHT22;7210;51.502;10.722;2022-07-15T11:20:34;20.30;1.00
14252;DHT22;7210;51.502;10.722;2022-07-15T11:23:04;20.50;1.00
14252;DHT22;7210;51.502;10.722;2022-07-15T11:25:34;20.40;1.00
14252;DHT22;7210;51.502;10.722;2022-07-15T11:28:10;20.50;1.00
14252;DHT22;7210;51.502;10.722;2022-07-15T11:30:41;20.90;1.00
14252;DHT22;7210;51.502;10.722;2022-07-15T11:33:11;21.40;1.00
14252;DHT22;7210;51.502;10.722;2022-07-15T11:35:46;21.40;1.00
14252;DHT22;7210;51.502;10.722;2022-07-15T11:38:17;21.20;1.00
14252;DHT22;7210;51.502;10.722;2022-07-15T11:40:52;21.00;1.00
14252;DHT22;7210;51.502;10.722;2022-07-15T11:43:41;20.70;1.00
14252;DHT22;7210;51.502;10.722;2022-07-15T11:46:27;20.60;1.00
14252;DHT22;7210;51.502;10.722;2022-07-15T11:48:56;20.50;1.00
14252;DHT22;7210;51.502;10.722;2022-07-15T11:51:26;20.40;1.00
14252;DHT22;7210;51.502;10.722;2022-07-15T11:53:56;20.40;1.00
14252;DHT22;7210;51.502;10.722;2022-07-15T11:56:24;20.20;1.00
14252;DHT22;7210;51.502;10.722;2022-07-15T11:58:55;20.20;1.00
14252;DHT22;7210;51.502;10.722;2022-07-15T12:01:24;20.40;1.00
14252;DHT22;7210;51.502;10.722;2022-07-15T12:03:56;20.60;1.00
14252;DHT22;7210;51.502;10.722;2022-07-15T12:06:25;20.70;1.00
14252;DHT22;7210;51.502;10.722;2022-07-15T12:08:55;20.80;1.00
14252;DHT22;7210;51.502;10.722;2022-07-15T12:11:25;21.00;3.80
14252;DHT22;7210;51.502;10.722;2022-07-15T12:13:57;21.10;1.00
14252;DHT22;7210;51.502;10.722;2022-07-15T12:16:28;20.70;1.00
14252;DHT22;7210;51.502;10.722;2022-07-15T12:19:03;20.80;1.00
14252;DHT22;7210;51.502;10.722;2022-07-15T12:21:37;20.90;1.00
14252;DHT22;7210;51.502;10.722;2022-07-15T12:24:10;20.70;1.00
14252;DHT22;7210;51.502;10.722;2022-07-15T12:26:40;20.80;1.00
14252;DHT22;7210;51.502;10.722;2022-07-15T12:29:11;20.80;1.00
14252;DHT22;7210;51.502;10.722;2022-07-15T12:31:40;21.20;1.00
14252;DHT22;7210;51.502;10.722;2022-07-15T12:34:09;21.70;1.00
14252;DHT22;7210;51.502;10.722;2022-07-15T12:36:36;21.90;1.50
14252;DHT22;7210;51.502;10.722;2022-07-15T12:39:13;21.80;1.00
14252;DHT22;7210;51.502;10.722;2022-07-15T12:41:45;21.30;1.00
14252;DHT22;7210;51.502;10.722;2022-07-15T12:44:26;21.30;1.00
14252;DHT22;7210;51.502;10.722;2022-07-15T12:46:55;21.20;1.00
14252;DHT22;7210;51.502;10.722;2022-07-15T12:49:47;21.10;1.00
14252;DHT22;7210;51.502;10.722;2022-07-15T12:52:20;21.10;1.00
14252;DHT22;7210;51.502;10.722;2022-07-15T12:54:51;21.30;1.00
14252;DHT22;7210;51.502;10.722;2022-07-15T12:57:26;21.20;1.00
14252;DHT22;7210;51.502;10.722;2022-07-15T12:59:59;21.30;1.00
14252;DHT22;7210;51.502;10.722;2022-07-15T13:02:28;21.70;1.00
14252;DHT22;7210;51.502;10.722;2022-07-15T13:04:55;21.90;1.70
14252;DHT22;7210;51.502;10.722;2022-07-15T13:07:22;21.90;3.20
14252;DHT22;7210;51.502;10.722;2022-07-15T13:09:50;21.90;3.90
14252;DHT22;7210;51.502;10.722;2022-07-15T13:12:18;21.90;3.80
14252;DHT22;7210;51.502;10.722;2022-07-15T13:14:45;22.10;5.70
14252;DHT22;7210;51.502;10.722;2022-07-15T13:17:14;22.10;6.00
14252;DHT22;7210;51.502;10.722;2022-07-15T13:19:41;22.10;6.00
14252;DHT22;7210;51.502;10.722;2022-07-15T13:22:08;21.70;3.50
14252;DHT22;7210;51.502;10.722;2022-07-15T13:24:35;21.50;1.00
14252;DHT22;7210;51.502;10.722;2022-07-15T13:27:03;21.40;1.00
14252;DHT22;7210;51.502;10.722;2022-07-15T13:29:30;21.10;1.00
14252;DHT22;7210;51.502;10.722;2022-07-15T13:31:58;21.10;1.00
14252;DHT22;7210;51.502;10.722;2022-07-15T13:34:26;21.10;1.00
14252;DHT22;7210;51.502;10.722;2022-07-15T13:36:54;21.10;1.00
14252;DHT22;7210;51.502;10.722;2022-07-15T13:39:21;20.90;1.00
14252;DHT22;7210;51.502;10.722;2022-07-15T13:41:48;20.70;1.00
14252;DHT22;7210;51.502;10.722;2022-07-15T13:44:15;20.50;1.00
14252;DHT22;7210;51.502;10.722;2022-07-15T13:46:43;20.30;1.00
14252;DHT22;7210;51.502;10.722;2022-07-15T13:49:10;20.20;1.00
14252;DHT22;7210;51.502;10.722;2022-07-15T13:51:38;20.40;1.00
14252;DHT22;7210;51.502;10.722;2022-07-15T13:54:07;20.60;1.00
14252;DHT22;7210;51.502;10.722;2022-07-15T13:56:35;20.80;1.00
14252;DHT22;7210;51.502;10.722;2022-07-15T13:59:03;21.00;1.00
14252;DHT22;7210;51.502;10.722;2022-07-15T14:01:30;21.40;1.00
14252;DHT22;7210;51.502;10.722;2022-07-15T14:03:58;21.80;6.00
14252;DHT22;7210;51.502;10.722;2022-07-15T14:06:25;22.00;8.10
14252;DHT22;7210;51.502;10.722;2022-07-15T14:08:54;22.00;22.20
14252;DHT22;7210;51.502;10.722;2022-07-15T14:11:21;21.70;7.50
14252;DHT22;7210;51.502;10.722;2022-07-15T14:13:48;21.40;3.80
14252;DHT22;7210;51.502;10.722;2022-07-15T14:16:16;21.40;1.60
14252;DHT22;7210;51.502;10.722;2022-07-15T14:18:43;22.00;6.50
14252;DHT22;7210;51.502;10.722;2022-07-15T14:21:15;22.30;12.70
14252;DHT22;7210;51.502;10.722;2022-07-15T14:23:44;22.30;13.00
14252;DHT22;7210;51.502;10.722;2022-07-15T14:26:13;22.00;10.10
14252;DHT22;7210;51.502;10.722;2022-07-15T14:28:41;21.80;10.30
14252;DHT22;7210;51.502;10.722;2022-07-15T14:31:09;21.60;7.80
14252;DHT22;7210;51.502;10.722;2022-07-15T14:33:39;21.50;5.40
14252;DHT22;7210;51.502;10.722;2022-07-15T14:36:07;21.40;2.60
14252;DHT22;7210;51.502;10.722;2022-07-15T14:38:36;21.50;4.20
14252;DHT22;7210;51.502;10.722;2022-07-15T14:41:04;21.50;7.10
14252;DHT22;7210;51.502;10.722;2022-07-15T14:43:34;21.70;8.20
14252;DHT22;7210;51.502;10.722;2022-07-15T14:46:01;21.90;8.40
14252;DHT22;7210;51.502;10.722;2022-07-15T14:48:28;22.20;11.80
14252;DHT22;7210;51.502;10.722;2022-07-15T14:50:56;22.50;15.90
14252;DHT22;7210;51.502;10.722;2022-07-15T14:53:23;22.60;16.70
14252;DHT22;7210;51.502;10.722;2022-07-15T14:55:50;22.60;15.80
14252;DHT22;7210;51.502;10.722;2022-07-15T14:58:18;22.50;16.20
14252;DHT22;7210;51.502;10.722;2022-07-15T15:00:47;22.40;13.90
14252;DHT22;7210;51.502;10.722;2022-07-15T15:03:15;22.30;13.40
14252;DHT22;7210;51.502;10.722;2022-07-15T15:05:43;22.30;13.30
14252;DHT22;7210;51.502;10.722;2022-07-15T15:08:10;22.40;14.10
14252;DHT22;7210;51.502;10.722;2022-07-15T15:10:38;22.30;12.50
14252;DHT22;7210;51.502;10.722;2022-07-15T15:13:05;22.20;14.80
14252;DHT22;7210;51.502;10.722;2022-07-15T15:15:32;22.00;10.50
14252;DHT22;7210;51.502;10.722;2022-07-15T15:18:01;21.70;7.30
14252;DHT22;7210;51.502;10.722;2022-07-15T15:20:28;21.70;6.60
14252;DHT22;7210;51.502;10.722;2022-07-15T15:22:56;22.00;9.50
14252;DHT22;7210;51.502;10.722;2022-07-15T15:25:25;22.30;13.00
14252;DHT22;7210;51.502;10.722;2022-07-15T15:28:11;22.40;15.90
14252;DHT22;7210;51.502;10.722;2022-07-15T15:30:38;22.60;16.10
14252;DHT22;7210;51.502;10.722;2022-07-15T15:33:06;22.80;17.90
14252;DHT22;7210;51.502;10.722;2022-07-15T15:35:34;23.00;21.40
14252;DHT22;7210;51.502;10.722;2022-07-15T15:38:01;23.40;27.30
14252;DHT22;7210;51.502;10.722;2022-07-15T15:40:28;23.30;27.10
14252;DHT22;7210;51.502;10.722;2022-07-15T15:42:55;23.10;24.90
14252;DHT22;7210;51.502;10.722;2022-07-15T15:45:23;23.40;27.80
14252;DHT22;7210;51.502;10.722;2022-07-15T15:47:50;23.60;31.10
14252;DHT22;7210;51.502;10.722;2022-07-15T15:50:19;23.70;31.90
14252;DHT22;7210;51.502;10.722;2022-07-15T15:52:46;23.60;32.30
14252;DHT22;7210;51.502;10.722;2022-07-15T15:55:14;23.80;33.70
14252;DHT22;7210;51.502;10.722;2022-07-15T15:57:42;23.60;33.60
14252;DHT22;7210;51.502;10.722;2022-07-15T16:00:10;23.60;32.10
14252;DHT22;7210;51.502;10.722;2022-07-15T16:02:38;23.50;31.40
14252;DHT22;7210;51.502;10.722;2022-07-15T16:05:08;23.90;35.60
14252;DHT22;7210;51.502;10.722;2022-07-15T16:07:37;24.30;39.40
14252;DHT22;7210;51.502;10.722;2022-07-15T16:10:05;24.30;38.10
14252;DHT22;7210;51.502;10.722;2022-07-15T16:12:32;24.30;40.40
14252;DHT22;7210;51.502;10.722;2022-07-15T16:15:00;24.10;37.90
14252;DHT22;7210;51.502;10.722;2022-07-15T16:17:28;23.80;34.20
14252;DHT22;7210;51.502;10.722;2022-07-15T16:19:56;23.60;34.60